sensor_id;sensor_type;location;lat;lon;timestamp;P1;durP1;ratioP1;P2;durP2;ratioP2
19414;SDS011;9843;48.882;12.592;2024-03-23T00:56:00;22.17;;;18.40;;
19414;SDS011;9843;48.882;12.592;2024-03-23T00:58:28;24.53;;;20.43;;
19414;SDS011;9843;48.882;12.592;2024-03-23T01:00:54;23.67;;;20.07;;
19414;SDS011;9843;48.882;12.592;2024-03-23T01:03:21;31.60;;;20.73;;
19414;SDS011;9843;48.882;12.592;2024-03-23T01:05:47;28.07;;;20.00;;
19414;SDS011;9843;48.882;12.592;2024-03-23T01:08:14;24.23;;;20.57;;
19414;SDS011;9843;48.882;12.592;2024-03-23T01:10:40;32.87;;;22.77;;
19414;SDS011;9843;48.882;12.592;2024-03-23T01:13:09;25.90;;;21.10;;
19414;SDS011;9843;48.882;12.592;2024-03-23T01:15:35;26.00;;;20.43;;
19414;SDS011;9843;48.882;12.592;2024-03-23T01:18:02;30.37;;;22.23;;
19414;SDS011;9843;48.882;12.592;2024-03-23T01:20:28;25.33;;;20.90;;
19414;SDS011;9843;48.882;12.592;2024-03-23T01:22:55;28.80;;;23.00;;
19414;SDS011;9843;48.882;12.592;2024-03-23T01:25:21;32.33;;;23.70;;
19414;SDS011;9843;48.882;12.592;2024-03-23T01:27:48;25.20;;;22.50;;
19414;SDS011;9843;48.882;12.592;2024-03-23T01:30:16;29.50;;;21.50;;
19414;SDS011;9843;48.882;12.592;2024-03-23T01:32:43;28.83;;;23.27;;
19414;SDS011;9843;48.882;12.592;2024-03-23T01:35:09;31.33;;;24.70;;
19414;SDS011;9843;48.882;12.592;2024-03-23T01:37:36;33.87;;;23.40;;
19414;SDS011;9843;48.882;12.592;2024-03-23T01:40:02;30.53;;;22.53;;
19414;SDS011;9843;48.882;12.592;2024-03-23T01:42:30;31.63;;;23.73;;
19414;SDS011;9843;48.882;12.592;2024-03-23T01:44:56;27.57;;;24.77;;
19414;SDS011;9843;48.882;12.592;2024-03-23T01:47:24;23.07;;;20.50;;
19414;SDS011;9843;48.882;12.592;2024-03-23T01:49:50;29.97;;;22.50;;
19414;SDS011;9843;48.882;12.592;2024-03-23T01:52:18;29.87;;;24.37;;
19414;SDS011;9843;48.882;12.592;2024-03-23T01:54:44;35.63;;;25.00;;
19414;SDS011;9843;48.882;12.592;2024-03-23T01:57:11;38.40;;;27.13;;
19414;SDS011;9843;48.882;12.592;2024-03-23T01:59:39;42.07;;;27.77;;
19414;SDS011;9843;48.882;12.592;2024-03-23T02:02:06;33.50;;;23.27;;
19414;SDS011;9843;48.882;12.592;2024-03-23T02:04:33;28.30;;;23.53;;
19414;SDS011;9843;48.882;12.592;2024-03-23T02:07:00;32.63;;;26.37;;
19414;SDS011;9843;48.882;12.592;2024-03-23T02:09:26;36.97;;;28.27;;
19414;SDS011;9843;48.882;12.592;2024-03-23T02:11:54;31.40;;;26.23;;
19414;SDS011;9843;48.882;12.592;2024-03-23T02:14:20;30.10;;;23.60;;
19414;SDS011;9843;48.882;12.592;2024-03-23T02:16:47;29.50;;;22.33;;
19414;SDS011;9843;48.882;12.592;2024-03-23T02:19:13;34.10;;;25.63;;
19414;SDS011;9843;48.882;12.592;2024-03-23T02:21:42;31.57;;;25.27;;
19414;SDS011;9843;48.882;12.592;2024-03-23T02:24:09;33.20;;;24.53;;
19414;SDS011;9843;48.882;12.592;2024-03-23T02:26:36;32.27;;;22.70;;
19414;SDS011;9843;48.882;12.592;2024-03-23T02:29:02;30.97;;;23.10;;
19414;SDS011;9843;48.882;12.592;2024-03-23T02:31:30;29.00;;;23.57;;
19414;SDS011;9843;48.882;12.592;2024-03-23T02:33:56;31.70;;;24.03;;
19414;SDS011;9843;48.882;12.592;2024-03-23T02:36:23;28.60;;;22.37;;
19414;SDS011;9843;48.882;12.592;2024-03-23T02:38:49;28.23;;;20.97;;
19414;SDS011;9843;48.882;12.592;2024-03-23T02:41:17;31.07;;;23.10;;
19414;SDS011;9843;48.882;12.592;2024-03-23T02:43:48;30.07;;;22.27;;
19414;SDS011;9843;48.882;12.592;2024-03-23T02:46:15;30.90;;;25.17;;
19414;SDS011;9843;48.882;12.592;2024-03-23T02:48:41;25.60;;;20.93;;
19414;SDS011;9843;48.882;12.592;2024-03-23T02:51:08;26.90;;;22.43;;
19414;SDS011;9843;48.882;12.592;2024-03-23T02:53:35;29.33;;;22.93;;
19414;SDS011;9843;48.882;12.592;2024-03-23T02:56:02;28.60;;;21.97;;
19414;SDS011;9843;48.882;12.592;2024-03-23T02:58:30;29.13;;;21.43;;
19414;SDS011;9843;48.882;12.592;2024-03-23T03:00:57;37.47;;;24.13;;
19414;SDS011;9843;48.882;12.592;2024-03-23T03:03:23;30.97;;;22.87;;
19414;SDS011;9843;48.882;12.592;2024-03-23T03:05:54;36.93;;;24.63;;
19414;SDS011;9843;48.882;12.592;2024-03-23T03:08:20;25.30;;;20.50;;
19414;SDS011;9843;48.882;12.592;2024-03-23T03:10:47;31.97;;;23.83;;
19414;SDS011;9843;48.882;12.592;2024-03-23T03:13:14;33.77;;;27.67;;
19414;SDS011;9843;48.882;12.592;2024-03-23T03:15:43;31.37;;;24.77;;
19414;SDS011;9843;48.882;12.592;2024-03-23T03:18:10;30.10;;;24.20;;
19414;SDS011;9843;48.882;12.592;2024-03-23T03:20:37;34.77;;;26.90;;
19414;SDS011;9843;48.882;12.592;2024-03-23T03:23:05;30.47;;;24.27;;
19414;SDS011;9843;48.882;12.592;2024-03-23T03:25:31;37.33;;;28.83;;
19414;SDS011;9843;48.882;12.592;2024-03-23T03:27:58;33.60;;;24.63;;
19414;SDS011;9843;48.882;12.592;2024-03-23T03:30:25;32.83;;;26.67;;
19414;SDS011;9843;48.882;12.592;2024-03-23T03:32:53;33.03;;;25.80;;
19414;SDS011;9843;48.882;12.592;2024-03-23T03:35:19;30.10;;;25.03;;
19414;SDS011;9843;48.882;12.592;2024-03-23T03:37:47;33.27;;;25.70;;
19414;SDS011;9843;48.882;12.592;2024-03-23T03:40:13;34.47;;;26.17;;
19414;SDS011;9843;48.882;12.592;2024-03-23T03:42:41;39.17;;;26.90;;
19414;SDS011;9843;48.882;12.592;2024-03-23T03:45:07;33.30;;;25.20;;
19414;SDS011;9843;48.882;12.592;2024-03-23T03:47:34;40.30;;;26.80;;
19414;SDS011;9843;48.882;12.592;2024-03-23T03:50:02;33.40;;;24.70;;
19414;SDS011;9843;48.882;12.592;2024-03-23T03:52:29;37.13;;;29.77;;
19414;SDS011;9843;48.882;12.592;2024-03-23T03:54:58;34.93;;;25.37;;
19414;SDS011;9843;48.882;12.592;2024-03-23T03:57:28;29.53;;;24.40;;
19414;SDS011;9843;48.882;12.592;2024-03-23T03:59:54;30.60;;;26.27;;
19414;SDS011;9843;48.882;12.592;2024-03-23T04:02:21;36.83;;;27.17;;
19414;SDS011;9843;48.882;12.592;2024-03-23T04:04:47;39.87;;;27.80;;
19414;SDS011;9843;48.882;12.592;2024-03-23T04:07:15;31.57;;;25.60;;
19414;SDS011;9843;48.882;12.592;2024-03-23T04:09:43;36.27;;;24.67;;
19414;SDS011;9843;48.882;12.592;2024-03-23T04:12:10;31.00;;;24.33;;
19414;SDS011;9843;48.882;12.592;2024-03-23T04:14:36;35.80;;;24.97;;
19414;SDS011;9843;48.882;12.592;2024-03-23T04:17:03;39.80;;;27.70;;
19414;SDS011;9843;48.882;12.592;2024-03-23T04:19:29;33.50;;;29.07;;
19414;SDS011;9843;48.882;12.592;2024-03-23T04:21:56;34.93;;;28.00;;
19414;SDS011;9843;48.882;12.592;2024-03-23T04:24:24;35.27;;;26.23;;
19414;SDS011;9843;48.882;12.592;2024-03-23T04:26:51;34.37;;;25.10;;
19414;SDS011;9843;48.882;12.592;2024-03-23T04:29:17;34.23;;;25.60;;
19414;SDS011;9843;48.882;12.592;2024-03-23T04:31:44;33.50;;;25.80;;
19414;SDS011;9843;48.882;12.592;2024-03-23T04:34:11;33.63;;;25.03;;
19414;SDS011;9843;48.882;12.592;2024-03-23T04:36:38;28.10;;;24.07;;
19414;SDS011;9843;48.882;12.592;2024-03-23T04:39:05;28.57;;;24.27;;
19414;SDS011;9843;48.882;12.592;2024-03-23T04:41:35;29.13;;;23.23;;
19414;SDS011;9843;48.882;12.592;2024-03-23T04:44:02;30.13;;;21.53;;
19414;SDS011;9843;48.882;12.592;2024-03-23T04:46:29;30.03;;;22.30;;
19414;SDS011;9843;48.882;12.592;2024-03-23T04:48:56;26.73;;;20.80;;
19414;SDS011;9843;48.882;12.592;2024-03-23T04:51:23;26.40;;;22.47;;
19414;SDS011;9843;48.882;12.592;2024-03-23T04:53:50;33.73;;;24.43;;
19414;SDS011;9843;48.882;12.592;2024-03-23T04:56:17;29.53;;;21.63;;
19414;SDS011;9843;48.882;12.592;2024-03-23T04:58:46;25.10;;;20.90;;
19414;SDS011;9843;48.882;12.592;2024-03-23T05:01:12;31.07;;;21.53;;
19414;SDS011;9843;48.882;12.592;2024-03-23T05:03:39;33.73;;;21.57;;
19414;SDS011;9843;48.882;12.592;2024-03-23T05:06:05;21.53;;;18.47;;
19414;SDS011;9843;48.882;12.592;2024-03-23T05:08:33;26.23;;;20.20;;
19414;SDS011;9843;48.882;12.592;2024-03-23T05:10:59;29.30;;;20.17;;
19414;SDS011;9843;48.882;12.592;2024-03-23T05:13:26;32.37;;;20.63;;
19414;SDS011;9843;48.882;12.592;2024-03-23T05:15:54;25.43;;;17.93;;
19414;SDS011;9843;48.882;12.592;2024-03-23T05:18:21;24.43;;;18.97;;
19414;SDS011;9843;48.882;12.592;2024-03-23T05:20:48;24.23;;;21.03;;
19414;SDS011;9843;48.882;12.592;2024-03-23T05:23:15;23.43;;;18.90;;
19414;SDS011;9843;48.882;12.592;2024-03-23T05:25:41;26.47;;;18.60;;
19414;SDS011;9843;48.882;12.592;2024-03-23T05:28:08;21.73;;;18.87;;
19414;SDS011;9843;48.882;12.592;2024-03-23T05:30:34;20.67;;;18.43;;
19414;SDS011;9843;48.882;12.592;2024-03-23T05:33:02;20.47;;;18.37;;
19414;SDS011;9843;48.882;12.592;2024-03-23T05:35:28;23.27;;;18.70;;
19414;SDS011;9843;48.882;12.592;2024-03-23T05:37:56;23.70;;;18.37;;
19414;SDS011;9843;48.882;12.592;2024-03-23T05:40:23;25.10;;;17.57;;
19414;SDS011;9843;48.882;12.592;2024-03-23T05:42:50;18.97;;;16.73;;
19414;SDS011;9843;48.882;12.592;2024-03-23T05:45:18;21.07;;;16.80;;
19414;SDS011;9843;48.882;12.592;2024-03-23T05:47:45;24.57;;;17.03;;
19414;SDS011;9843;48.882;12.592;2024-03-23T05:50:13;31.20;;;18.43;;
19414;SDS011;9843;48.882;12.592;2024-03-23T05:52:40;17.53;;;15.70;;
19414;SDS011;9843;48.882;12.592;2024-03-23T05:55:08;24.23;;;18.07;;
19414;SDS011;9843;48.882;12.592;2024-03-23T05:57:35;19.17;;;16.30;;
19414;SDS011;9843;48.882;12.592;2024-03-23T06:00:02;21.47;;;15.17;;
19414;SDS011;9843;48.882;12.592;2024-03-23T06:02:29;17.33;;;15.27;;
19414;SDS011;9843;48.882;12.592;2024-03-23T06:04:55;21.90;;;15.83;;
19414;SDS011;9843;48.882;12.592;2024-03-23T06:07:24;22.80;;;16.63;;
19414;SDS011;9843;48.882;12.592;2024-03-23T06:09:50;19.07;;;14.90;;
19414;SDS011;9843;48.882;12.592;2024-03-23T06:12:17;17.70;;;14.93;;
19414;SDS011;9843;48.882;12.592;2024-03-23T06:14:43;17.20;;;14.30;;
19414;SDS011;9843;48.882;12.592;2024-03-23T06:17:10;20.23;;;15.17;;
19414;SDS011;9843;48.882;12.592;2024-03-23T06:19:36;21.37;;;16.37;;
19414;SDS011;9843;48.882;12.592;2024-03-23T06:22:03;16.03;;;14.17;;
19414;SDS011;9843;48.882;12.592;2024-03-23T06:24:33;20.67;;;15.50;;
19414;SDS011;9843;48.882;12.592;2024-03-23T06:27:00;16.77;;;14.00;;
19414;SDS011;9843;48.882;12.592;2024-03-23T06:29:26;16.50;;;14.80;;
19414;SDS011;9843;48.882;12.592;2024-03-23T06:31:53;15.87;;;14.17;;
19414;SDS011;9843;48.882;12.592;2024-03-23T06:34:19;17.70;;;15.57;;
19414;SDS011;9843;48.882;12.592;2024-03-23T06:36:48;15.83;;;13.70;;
19414;SDS011;9843;48.882;12.592;2024-03-23T06:39:14;17.70;;;14.90;;
19414;SDS011;9843;48.882;12.592;2024-03-23T06:41:42;17.10;;;15.00;;
19414;SDS011;9843;48.882;12.592;2024-03-23T06:44:08;19.07;;;14.97;;
19414;SDS011;9843;48.882;12.592;2024-03-23T06:46:35;19.70;;;13.60;;
19414;SDS011;9843;48.882;12.592;2024-03-23T06:49:02;15.23;;;12.03;;
19414;SDS011;9843;48.882;12.592;2024-03-23T06:51:29;12.97;;;11.27;;
19414;SDS011;9843;48.882;12.592;2024-03-23T06:53:55;11.40;;;10.23;;
19414;SDS011;9843;48.882;12.592;2024-03-23T06:56:22;16.73;;;11.23;;
19414;SDS011;9843;48.882;12.592;2024-03-23T06:58:49;10.90;;;9.10;;
19414;SDS011;9843;48.882;12.592;2024-03-23T07:01:16;12.57;;;10.57;;
19414;SDS011;9843;48.882;12.592;2024-03-23T07:03:42;10.07;;;9.17;;
19414;SDS011;9843;48.882;12.592;2024-03-23T07:06:09;10.93;;;9.37;;
19414;SDS011;9843;48.882;12.592;2024-03-23T07:08:36;12.17;;;8.57;;
19414;SDS011;9843;48.882;12.592;2024-03-23T07:11:03;13.17;;;10.47;;
19414;SDS011;9843;48.882;12.592;2024-03-23T07:13:29;8.50;;;7.70;;
19414;SDS011;9843;48.882;12.592;2024-03-23T07:15:58;9.50;;;8.60;;
19414;SDS011;9843;48.882;12.592;2024-03-23T07:18:25;9.17;;;8.03;;
19414;SDS011;9843;48.882;12.592;2024-03-23T07:20:52;9.83;;;7.27;;
19414;SDS011;9843;48.882;12.592;2024-03-23T07:23:18;9.53;;;7.40;;
19414;SDS011;9843;48.882;12.592;2024-03-23T07:25:55;10.47;;;8.47;;
19414;SDS011;9843;48.882;12.592;2024-03-23T07:28:21;7.57;;;6.67;;
19414;SDS011;9843;48.882;12.592;2024-03-23T07:30:48;7.93;;;6.60;;
19414;SDS011;9843;48.882;12.592;2024-03-23T07:33:25;9.10;;;6.83;;
19414;SDS011;9843;48.882;12.592;2024-03-23T07:35:53;8.47;;;6.40;;
19414;SDS011;9843;48.882;12.592;2024-03-23T07:38:19;8.30;;;6.00;;
19414;SDS011;9843;48.882;12.592;2024-03-23T07:40:46;9.77;;;6.10;;
19414;SDS011;9843;48.882;12.592;2024-03-23T07:43:15;10.27;;;6.10;;
19414;SDS011;9843;48.882;12.592;2024-03-23T07:45:42;6.37;;;5.27;;
19414;SDS011;9843;48.882;12.592;2024-03-23T07:48:08;7.43;;;5.87;;
19414;SDS011;9843;48.882;12.592;2024-03-23T07:50:36;7.30;;;5.33;;
19414;SDS011;9843;48.882;12.592;2024-03-23T07:53:02;9.67;;;5.67;;
19414;SDS011;9843;48.882;12.592;2024-03-23T07:55:29;7.33;;;6.33;;
19414;SDS011;9843;48.882;12.592;2024-03-23T07:57:56;8.17;;;7.37;;
19414;SDS011;9843;48.882;12.592;2024-03-23T08:00:23;8.23;;;6.63;;
19414;SDS011;9843;48.882;12.592;2024-03-23T08:02:50;7.67;;;6.83;;
19414;SDS011;9843;48.882;12.592;2024-03-23T08:05:17;8.77;;;7.87;;
19414;SDS011;9843;48.882;12.592;2024-03-23T08:07:45;8.93;;;7.10;;
19414;SDS011;9843;48.882;12.592;2024-03-23T08:10:12;13.50;;;8.53;;
19414;SDS011;9843;48.882;12.592;2024-03-23T08:12:38;10.70;;;9.13;;
19414;SDS011;9843;48.882;12.592;2024-03-23T08:17:33;13.37;;;8.83;;
19414;SDS011;9843;48.882;12.592;2024-03-23T08:20:00;11.63;;;9.27;;
19414;SDS011;9843;48.882;12.592;2024-03-23T08:22:27;10.33;;;8.80;;
19414;SDS011;9843;48.882;12.592;2024-03-23T08:24:55;9.10;;;7.70;;
19414;SDS011;9843;48.882;12.592;2024-03-23T08:27:21;8.67;;;7.70;;
19414;SDS011;9843;48.882;12.592;2024-03-23T08:29:48;10.47;;;7.33;;
19414;SDS011;9843;48.882;12.592;2024-03-23T08:32:14;8.43;;;6.07;;
19414;SDS011;9843;48.882;12.592;2024-03-23T08:34:42;8.83;;;7.07;;
19414;SDS011;9843;48.882;12.592;2024-03-23T08:37:08;7.23;;;6.43;;
19414;SDS011;9843;48.882;12.592;2024-03-23T08:39:35;6.37;;;5.63;;
19414;SDS011;9843;48.882;12.592;2024-03-23T08:42:03;8.10;;;6.43;;
19414;SDS011;9843;48.882;12.592;2024-03-23T08:44:30;6.93;;;6.20;;
19414;SDS011;9843;48.882;12.592;2024-03-23T08:46:56;6.20;;;5.60;;
19414;SDS011;9843;48.882;12.592;2024-03-23T08:49:24;13.17;;;6.03;;
19414;SDS011;9843;48.882;12.592;2024-03-23T08:51:50;6.87;;;5.07;;
19414;SDS011;9843;48.882;12.592;2024-03-23T08:54:17;6.27;;;5.03;;
19414;SDS011;9843;48.882;12.592;2024-03-23T08:56:45;9.93;;;7.30;;
19414;SDS011;9843;48.882;12.592;2024-03-23T08:59:13;7.93;;;5.43;;
19414;SDS011;9843;48.882;12.592;2024-03-23T09:01:39;6.33;;;5.37;;
19414;SDS011;9843;48.882;12.592;2024-03-23T09:04:06;7.43;;;6.07;;
19414;SDS011;9843;48.882;12.592;2024-03-23T09:06:32;10.10;;;6.87;;
19414;SDS011;9843;48.882;12.592;2024-03-23T09:08:59;6.57;;;5.97;;
19414;SDS011;9843;48.882;12.592;2024-03-23T09:11:26;16.03;;;7.90;;
19414;SDS011;9843;48.882;12.592;2024-03-23T09:13:53;6.20;;;5.63;;
19414;SDS011;9843;48.882;12.592;2024-03-23T09:16:20;5.37;;;4.97;;
19414;SDS011;9843;48.882;12.592;2024-03-23T09:18:47;7.33;;;5.90;;
19414;SDS011;9843;48.882;12.592;2024-03-23T09:21:13;5.40;;;4.90;;
19414;SDS011;9843;48.882;12.592;2024-03-23T09:23:42;5.27;;;4.77;;
19414;SDS011;9843;48.882;12.592;2024-03-23T09:26:09;4.83;;;4.20;;
19414;SDS011;9843;48.882;12.592;2024-03-23T09:28:36;7.90;;;4.67;;
19414;SDS011;9843;48.882;12.592;2024-03-23T09:31:02;4.30;;;3.70;;
19414;SDS011;9843;48.882;12.592;2024-03-23T09:33:30;4.67;;;4.27;;
19414;SDS011;9843;48.882;12.592;2024-03-23T09:35:56;5.57;;;4.37;;
19414;SDS011;9843;48.882;12.592;2024-03-23T09:38:23;6.50;;;4.93;;
19414;SDS011;9843;48.882;12.592;2024-03-23T09:40:50;5.50;;;5.00;;
19414;SDS011;9843;48.882;12.592;2024-03-23T09:43:19;5.27;;;4.83;;
19414;SDS011;9843;48.882;12.592;2024-03-23T09:45:45;6.33;;;5.73;;
19414;SDS011;9843;48.882;12.592;2024-03-23T09:48:12;6.47;;;5.70;;
19414;SDS011;9843;48.882;12.592;2024-03-23T09:50:40;4.77;;;4.37;;
19414;SDS011;9843;48.882;12.592;2024-03-23T09:53:08;6.47;;;5.83;;
19414;SDS011;9843;48.882;12.592;2024-03-23T09:55:35;4.97;;;4.47;;
19414;SDS011;9843;48.882;12.592;2024-03-23T09:58:02;6.33;;;5.40;;
19414;SDS011;9843;48.882;12.592;2024-03-23T10:00:30;5.90;;;5.27;;
19414;SDS011;9843;48.882;12.592;2024-03-23T10:02:57;5.40;;;4.90;;
19414;SDS011;9843;48.882;12.592;2024-03-23T10:05:27;7.07;;;5.40;;
19414;SDS011;9843;48.882;12.592;2024-03-23T10:07:55;4.87;;;4.37;;
19414;SDS011;9843;48.882;12.592;2024-03-23T10:10:21;5.63;;;5.13;;
19414;SDS011;9843;48.882;12.592;2024-03-23T10:12:49;6.43;;;5.43;;
19414;SDS011;9843;48.882;12.592;2024-03-23T10:15:18;5.97;;;4.60;;
19414;SDS011;9843;48.882;12.592;2024-03-23T10:17:45;6.60;;;5.20;;
19414;SDS011;9843;48.882;12.592;2024-03-23T10:20:12;7.30;;;5.37;;
19414;SDS011;9843;48.882;12.592;2024-03-23T10:22:39;9.90;;;5.47;;
19414;SDS011;9843;48.882;12.592;2024-03-23T10:25:10;5.93;;;4.90;;
19414;SDS011;9843;48.882;12.592;2024-03-23T10:27:38;6.03;;;5.33;;
19414;SDS011;9843;48.882;12.592;2024-03-23T10:30:08;5.00;;;4.50;;
19414;SDS011;9843;48.882;12.592;2024-03-23T10:32:35;5.53;;;4.97;;
19414;SDS011;9843;48.882;12.592;2024-03-23T10:35:14;7.07;;;5.43;;
19414;SDS011;9843;48.882;12.592;2024-03-23T10:37:41;7.97;;;4.97;;
19414;SDS011;9843;48.882;12.592;2024-03-23T10:40:11;8.07;;;5.87;;
19414;SDS011;9843;48.882;12.592;2024-03-23T10:42:38;5.93;;;4.67;;
19414;SDS011;9843;48.882;12.592;2024-03-23T10:45:05;4.80;;;4.00;;
19414;SDS011;9843;48.882;12.592;2024-03-23T10:47:34;4.23;;;3.47;;
19414;SDS011;9843;48.882;12.592;2024-03-23T10:50:00;6.20;;;3.93;;
19414;SDS011;9843;48.882;12.592;2024-03-23T10:52:27;4.60;;;4.17;;
19414;SDS011;9843;48.882;12.592;2024-03-23T10:54:53;4.70;;;3.37;;
19414;SDS011;9843;48.882;12.592;2024-03-23T10:57:25;3.43;;;3.13;;
19414;SDS011;9843;48.882;12.592;2024-03-23T10:59:53;3.20;;;2.90;;
19414;SDS011;9843;48.882;12.592;2024-03-23T11:02:21;3.60;;;3.20;;
19414;SDS011;9843;48.882;12.592;2024-03-23T11:04:47;4.07;;;3.30;;
19414;SDS011;9843;48.882;12.592;2024-03-23T11:07:28;3.00;;;2.80;;
19414;SDS011;9843;48.882;12.592;2024-03-23T11:09:54;3.20;;;2.90;;
19414;SDS011;9843;48.882;12.592;2024-03-23T11:12:26;2.90;;;2.70;;
19414;SDS011;9843;48.882;12.592;2024-03-23T11:14:53;2.50;;;2.40;;
19414;SDS011;9843;48.882;12.592;2024-03-23T11:17:21;3.27;;;3.07;;
19414;SDS011;9843;48.882;12.592;2024-03-23T11:19:52;2.23;;;2.13;;
19414;SDS011;9843;48.882;12.592;2024-03-23T11:25:13;2.23;;;2.13;;
19414;SDS011;9843;48.882;12.592;2024-03-23T11:27:42;1.97;;;1.87;;
19414;SDS011;9843;48.882;12.592;2024-03-23T11:30:09;1.70;;;1.60;;
19414;SDS011;9843;48.882;12.592;2024-03-23T11:32:37;1.67;;;1.57;;
19414;SDS011;9843;48.882;12.592;2024-03-23T11:35:03;1.53;;;1.43;;
19414;SDS011;9843;48.882;12.592;2024-03-23T11:37:30;1.47;;;1.47;;
19414;SDS011;9843;48.882;12.592;2024-03-23T11:39:56;1.73;;;1.63;;
19414;SDS011;9843;48.882;12.592;2024-03-23T11:42:23;1.50;;;1.47;;
19414;SDS011;9843;48.882;12.592;2024-03-23T11:44:51;1.67;;;1.57;;
19414;SDS011;9843;48.882;12.592;2024-03-23T11:47:18;1.90;;;1.80;;
19414;SDS011;9843;48.882;12.592;2024-03-23T11:49:44;2.00;;;1.90;;
19414;SDS011;9843;48.882;12.592;2024-03-23T11:52:11;2.40;;;2.30;;
19414;SDS011;9843;48.882;12.592;2024-03-23T11:54:37;3.40;;;2.87;;
19414;SDS011;9843;48.882;12.592;2024-03-23T11:57:06;5.23;;;3.37;;
19414;SDS011;9843;48.882;12.592;2024-03-23T11:59:33;3.07;;;2.77;;
19414;SDS011;9843;48.882;12.592;2024-03-23T12:02:05;2.23;;;2.13;;
19414;SDS011;9843;48.882;12.592;2024-03-23T12:04:31;2.10;;;2.00;;
19414;SDS011;9843;48.882;12.592;2024-03-23T12:07:10;2.40;;;2.20;;
19414;SDS011;9843;48.882;12.592;2024-03-23T12:09:37;2.20;;;2.00;;
19414;SDS011;9843;48.882;12.592;2024-03-23T12:12:08;2.07;;;1.97;;
19414;SDS011;9843;48.882;12.592;2024-03-23T12:14:34;2.27;;;2.10;;
19414;SDS011;9843;48.882;12.592;2024-03-23T12:17:10;2.13;;;1.83;;
19414;SDS011;9843;48.882;12.592;2024-03-23T12:19:36;1.90;;;1.80;;
19414;SDS011;9843;48.882;12.592;2024-03-23T12:22:03;2.47;;;2.00;;
19414;SDS011;9843;48.882;12.592;2024-03-23T12:24:29;3.53;;;2.93;;
19414;SDS011;9843;48.882;12.592;2024-03-23T12:26:59;3.40;;;3.10;;
19414;SDS011;9843;48.882;12.592;2024-03-23T12:29:26;1.93;;;1.83;;
19414;SDS011;9843;48.882;12.592;2024-03-23T12:31:53;2.30;;;2.10;;
19414;SDS011;9843;48.882;12.592;2024-03-23T12:34:20;2.20;;;2.10;;
19414;SDS011;9843;48.882;12.592;2024-03-23T12:36:47;2.20;;;2.10;;
19414;SDS011;9843;48.882;12.592;2024-03-23T12:39:13;2.03;;;1.83;;
19414;SDS011;9843;48.882;12.592;2024-03-23T12:41:40;5.07;;;3.20;;
19414;SDS011;9843;48.882;12.592;2024-03-23T12:44:06;3.57;;;2.97;;
19414;SDS011;9843;48.882;12.592;2024-03-23T12:46:36;3.50;;;3.20;;
19414;SDS011;9843;48.882;12.592;2024-03-23T12:49:02;4.87;;;3.93;;
19414;SDS011;9843;48.882;12.592;2024-03-23T12:51:31;4.20;;;3.57;;
19414;SDS011;9843;48.882;12.592;2024-03-23T12:53:57;3.73;;;3.43;;
19414;SDS011;9843;48.882;12.592;2024-03-23T12:56:25;7.50;;;5.17;;
19414;SDS011;9843;48.882;12.592;2024-03-23T12:58:51;2.87;;;2.63;;
19414;SDS011;9843;48.882;12.592;2024-03-23T13:01:19;2.43;;;2.23;;
19414;SDS011;9843;48.882;12.592;2024-03-23T13:03:46;2.40;;;2.30;;
19414;SDS011;9843;48.882;12.592;2024-03-23T13:06:13;3.80;;;3.50;;
19414;SDS011;9843;48.882;12.592;2024-03-23T13:08:40;2.20;;;2.10;;
19414;SDS011;9843;48.882;12.592;2024-03-23T13:11:08;2.20;;;2.10;;
19414;SDS011;9843;48.882;12.592;2024-03-23T13:13:35;2.40;;;2.20;;
19414;SDS011;9843;48.882;12.592;2024-03-23T13:16:02;2.90;;;2.67;;
19414;SDS011;9843;48.882;12.592;2024-03-23T13:18:29;3.93;;;2.63;;
19414;SDS011;9843;48.882;12.592;2024-03-23T13:20:56;3.07;;;2.87;;
19414;SDS011;9843;48.882;12.592;2024-03-23T13:23:22;2.70;;;2.50;;
19414;SDS011;9843;48.882;12.592;2024-03-23T13:25:51;4.10;;;2.87;;
19414;SDS011;9843;48.882;12.592;2024-03-23T13:28:18;4.87;;;3.80;;
19414;SDS011;9843;48.882;12.592;2024-03-23T13:30:51;3.83;;;3.53;;
19414;SDS011;9843;48.882;12.592;2024-03-23T13:33:17;3.67;;;2.43;;
19414;SDS011;9843;48.882;12.592;2024-03-23T13:35:51;10.73;;;3.73;;
19414;SDS011;9843;48.882;12.592;2024-03-23T13:38:17;2.60;;;2.40;;
19414;SDS011;9843;48.882;12.592;2024-03-23T13:40:52;4.17;;;3.87;;
19414;SDS011;9843;48.882;12.592;2024-03-23T13:43:18;7.20;;;2.57;;
19414;SDS011;9843;48.882;12.592;2024-03-23T13:45:46;5.13;;;2.33;;
19414;SDS011;9843;48.882;12.592;2024-03-23T13:48:12;4.03;;;3.63;;
19414;SDS011;9843;48.882;12.592;2024-03-23T13:50:39;5.30;;;3.50;;
19414;SDS011;9843;48.882;12.592;2024-03-23T13:53:05;3.13;;;2.50;;
19414;SDS011;9843;48.882;12.592;2024-03-23T13:55:33;2.93;;;2.73;;
19414;SDS011;9843;48.882;12.592;2024-03-23T13:58:00;2.80;;;2.60;;
19414;SDS011;9843;48.882;12.592;2024-03-23T14:00:27;2.70;;;2.50;;
19414;SDS011;9843;48.882;12.592;2024-03-23T14:02:53;4.60;;;2.80;;
19414;SDS011;9843;48.882;12.592;2024-03-23T14:05:21;2.80;;;2.60;;
19414;SDS011;9843;48.882;12.592;2024-03-23T14:07:47;2.73;;;2.53;;
19414;SDS011;9843;48.882;12.592;2024-03-23T14:10:14;4.77;;;3.10;;
19414;SDS011;9843;48.882;12.592;2024-03-23T14:12:40;4.47;;;2.90;;
19414;SDS011;9843;48.882;12.592;2024-03-23T14:15:09;4.10;;;2.80;;
19414;SDS011;9843;48.882;12.592;2024-03-23T14:17:35;4.20;;;2.70;;
19414;SDS011;9843;48.882;12.592;2024-03-23T14:20:02;4.17;;;3.77;;
19414;SDS011;9843;48.882;12.592;2024-03-23T14:22:30;3.83;;;3.53;;
19414;SDS011;9843;48.882;12.592;2024-03-23T14:24:57;4.13;;;3.77;;
19414;SDS011;9843;48.882;12.592;2024-03-23T14:27:23;2.60;;;2.50;;
19414;SDS011;9843;48.882;12.592;2024-03-23T14:29:50;2.77;;;2.50;;
19414;SDS011;9843;48.882;12.592;2024-03-23T14:32:18;3.10;;;2.80;;
19414;SDS011;9843;48.882;12.592;2024-03-23T14:34:45;5.73;;;2.63;;
19414;SDS011;9843;48.882;12.592;2024-03-23T14:37:11;4.77;;;2.53;;
19414;SDS011;9843;48.882;12.592;2024-03-23T14:39:40;11.47;;;3.90;;
19414;SDS011;9843;48.882;12.592;2024-03-23T14:42:06;3.57;;;3.10;;
19414;SDS011;9843;48.882;12.592;2024-03-23T14:44:34;4.13;;;3.10;;
19414;SDS011;9843;48.882;12.592;2024-03-23T14:47:00;4.07;;;3.67;;
19414;SDS011;9843;48.882;12.592;2024-03-23T14:49:29;3.20;;;3.00;;
19414;SDS011;9843;48.882;12.592;2024-03-23T14:51:55;3.40;;;2.73;;
19414;SDS011;9843;48.882;12.592;2024-03-23T14:54:22;4.33;;;3.10;;
19414;SDS011;9843;48.882;12.592;2024-03-23T14:56:49;5.23;;;3.13;;
19414;SDS011;9843;48.882;12.592;2024-03-23T14:59:16;4.90;;;3.10;;
19414;SDS011;9843;48.882;12.592;2024-03-23T15:01:44;3.33;;;3.10;;
19414;SDS011;9843;48.882;12.592;2024-03-23T15:04:11;3.50;;;3.20;;
19414;SDS011;9843;48.882;12.592;2024-03-23T15:06:38;5.90;;;3.20;;
19414;SDS011;9843;48.882;12.592;2024-03-23T15:09:05;4.13;;;3.73;;
19414;SDS011;9843;48.882;12.592;2024-03-23T15:11:34;7.20;;;3.47;;
19414;SDS011;9843;48.882;12.592;2024-03-23T15:14:01;9.57;;;4.40;;
19414;SDS011;9843;48.882;12.592;2024-03-23T15:16:27;4.77;;;3.50;;
19414;SDS011;9843;48.882;12.592;2024-03-23T15:18:54;4.67;;;3.43;;
19414;SDS011;9843;48.882;12.592;2024-03-23T15:21:20;3.50;;;3.20;;
19414;SDS011;9843;48.882;12.592;2024-03-23T15:23:48;4.60;;;3.73;;
19414;SDS011;9843;48.882;12.592;2024-03-23T15:26:15;4.57;;;3.80;;
19414;SDS011;9843;48.882;12.592;2024-03-23T15:28:42;6.33;;;4.97;;
19414;SDS011;9843;48.882;12.592;2024-03-23T15:31:28;5.77;;;3.23;;
19414;SDS011;9843;48.882;12.592;2024-03-23T15:33:56;4.10;;;3.73;;
19414;SDS011;9843;48.882;12.592;2024-03-23T15:36:22;6.60;;;5.10;;